Sds Green — ICOK — position and weather

sailwx.info

Track history (hours):
 
Tides and Currents Weather Stations Pressure Air Temp Water Temp Dewpoint Dewpoint Depression Visibility Wind Speed Wind Dir Waves Ship Positions

Sds Green

Last reported at 2014-Aug-01 23:26 UTC. Time now 2014-Aug-02 00:26 UTC.
Position N 43°26' E 004°53'.

Length 108 m; draft 4.4 m.

Type: Cargo ship. MMSI: 247292200.

Date/timePositionNaut miles runAvg speedWind from/ knotsBaromVisibWave heightAir tempDewpointWater temp
2014-Aug-01 23:26N 43°26' E 004°53'0 0.0
2014-Aug-01 22:32N 43°26' E 004°53'0 0.0
2014-Aug-01 21:32N 43°26' E 004°53'0 0.0
2014-Aug-01 20:32N 43°26' E 004°53'0 0.0
2014-Aug-01 19:29N 43°26' E 004°53'0 0.0
2014-Aug-01 18:32N 43°26' E 004°53'0 0.0
2014-Aug-01 17:29N 43°26' E 004°53'0 0.0
2014-Aug-01 16:29N 43°26' E 004°53'0 0.0
2014-Aug-01 15:32N 43°26' E 004°53'0 0.0
2014-Aug-01 14:32N 43°26' E 004°53'0 0.0
2014-Aug-01 13:32N 43°26' E 004°53'0 0.0
2014-Aug-01 12:32N 43°26' E 004°53'0 0.0
2014-Aug-01 11:32N 43°26' E 004°53'0 0.0
2014-Aug-01 10:32N 43°26' E 004°53'0 0.0
2014-Aug-01 09:32N 43°26' E 004°53'0 0.0
2014-Aug-01 08:32N 43°26' E 004°53'0 0.0
2014-Aug-01 07:32N 43°26' E 004°53'0 0.0
2014-Aug-01 06:32N 43°26' E 004°53'0 0.0
2014-Aug-01 05:29N 43°26' E 004°53'0 0.0
2014-Aug-01 04:32N 43°26' E 004°53'0 0.0
2014-Aug-01 03:29N 43°26' E 004°53'0 0.0
2014-Aug-01 02:23N 43°26' E 004°53'0 0.0
2014-Aug-01 01:32N 43°26' E 004°53'0 0.0
2014-Aug-01 00:32N 43°26' E 004°53'0 0.0
2014-Jul-31 23:32N 43°26' E 004°53'0 0.0
2014-Jul-31 22:29N 43°26' E 004°53'0 0.0
2014-Jul-31 21:32N 43°26' E 004°53'0 0.0
2014-Jul-31 20:32N 43°26' E 004°53'0 0.0
2014-Jul-31 19:32N 43°26' E 004°53'0 0.0
2014-Jul-31 18:32N 43°26' E 004°53'0 0.0
2014-Jul-31 17:32N 43°26' E 004°53'0 0.0
2014-Jul-31 16:32N 43°26' E 004°53'0 0.0
2014-Jul-31 15:29N 43°26' E 004°53'0 0.0
2014-Jul-31 14:32N 43°26' E 004°53'0 0.0
2014-Jul-31 13:32N 43°26' E 004°53'0 0.0
2014-Jul-31 12:32N 43°26' E 004°53'0 0.0
2014-Jul-31 11:29N 43°26' E 004°53'0 0.0
2014-Jul-31 10:32N 43°26' E 004°53'0 0.0
2014-Jul-31 09:32N 43°26' E 004°53'0 0.0
2014-Jul-31 08:33N 43°26' E 004°53'0 0.0
2014-Jul-31 07:33N 43°26' E 004°53'0 0.0
2014-Jul-31 06:33N 43°26' E 004°53'0 0.0
2014-Jul-31 05:33N 43°26' E 004°53'0 0.0
2014-Jul-31 04:33N 43°26' E 004°53'0 0.0
2014-Jul-31 03:33N 43°26' E 004°53'0 0.0
2014-Jul-31 02:33N 43°26' E 004°53'0 0.0
2014-Jul-31 01:33N 43°26' E 004°53'0 0.0
2014-Jul-31 00:33N 43°26' E 004°53'0 0.0
2014-Jul-30 23:33N 43°26' E 004°53'0 0.0
2014-Jul-30 22:33N 43°26' E 004°53'0 0.0
2014-Jul-30 21:33N 43°26' E 004°53'0 0.0
2014-Jul-30 20:33N 43°26' E 004°53'0 0.0
2014-Jul-30 19:33N 43°26' E 004°53'0 0.0
2014-Jul-30 18:33N 43°26' E 004°53'0 0.0
2014-Jul-30 17:33N 43°26' E 004°53'0 0.0
2014-Jul-30 16:33N 43°26' E 004°53'0 0.0
2014-Jul-30 15:33N 43°26' E 004°53'0 0.0
2014-Jul-30 14:33N 43°26' E 004°53'0 0.0
2014-Jul-30 13:33N 43°26' E 004°53'0 0.0
2014-Jul-30 12:33N 43°26' E 004°53'2 2.0
2014-Jul-30 11:33N 43°25' E 004°56'0 0.1
2014-Jul-30 10:31N 43°25' E 004°56'5 4.8
2014-Jul-30 09:34N 43°21' E 004°59'10 9.7
2014-Jul-30 08:32N 43°12' E 005°05'10 9.2
2014-Jul-30 07:29N 43°08' E 005°17'9 9.3
2014-Jul-30 06:33N 43°06' E 005°29'9 9.2
2014-Jul-30 05:34N 43°03' E 005°41'10 9.6
2014-Jul-30 04:33N 43°00' E 005°53'9 9.3
2014-Jul-30 03:34N 42°58' E 006°06'9 8.8
2014-Jul-30 02:33N 42°57' E 006°18'1110.9
2014-Jul-30 01:33N 42°58' E 006°32'1211.7
2014-Jul-30 00:33N 42°59' E 006°48'1111.2
2014-Jul-29 23:33N 43°01' E 007°03'5310.6
2014-Jul-29 18:33N 43°08' E 008°15'1010.2
2014-Jul-29 17:33N 43°07' E 008°29'2510.3
2014-Jul-29 15:10N 43°05' E 009°03'610.5
2014-Jul-29 14:33N 43°05' E 009°12'62 2.5
2014-Jul-28 14:14N 42°54' E 010°35'0 0.0
2014-Jul-28 13:11N 42°54' E 010°35'0 0.0
2014-Jul-28 12:31N 42°54' E 010°35'0 0.0
2014-Jul-28 11:31N 42°54' E 010°35'0 0.0
2014-Jul-28 10:31N 42°54' E 010°35'0 0.0
2014-Jul-27 21:31N 42°54' E 010°35'0 0.0
2014-Jul-27 20:10N 42°54' E 010°35'0 0.0
2014-Jul-27 18:22N 42°54' E 010°35'0 0.0
2014-Jul-27 16:28N 42°54' E 010°35'0 0.0
2014-Jul-27 15:31N 42°54' E 010°35'0 0.0
2014-Jul-27 07:04N 42°54' E 010°35'0 0.0
2014-Jul-26 12:06N 42°54' E 010°35'6 9.9
2014-Jul-26 11:32N 42°49' E 010°36'16312.4
2014-Jul-25 22:22N 40°48' E 013°04'1112.5
2014-Jul-25 21:31N 40°45' E 013°17'1212.5
2014-Jul-25 20:32N 40°41' E 013°33'1212.3
2014-Jul-25 19:33N 40°37' E 013°48'1312.2
2014-Jul-25 18:30N 40°33' E 014°04'1411.8
2014-Jul-25 17:21N 40°31' E 014°21'11 0.3
2014-Jul-24 08:21N 40°35' E 014°35'1012.1
2014-Jul-24 07:32N 40°32' E 014°23'1111.0
2014-Jul-24 06:33N 40°31' E 014°09'10 9.8
2014-Jul-24 05:33N 40°34' E 013°56'1211.8
2014-Jul-24 04:33N 40°36' E 013°41'1312.0
2014-Jul-24 03:28N 40°39' E 013°24'23811.8
2014-Jul-23 07:14N 41°38' E 008°18'911.9
2014-Jul-23 06:30N 41°42' E 008°08'1111.7
2014-Jul-23 05:33N 41°48' E 007°55'1212.0
2014-Jul-23 04:33N 41°55' E 007°42'1212.2
2014-Jul-23 03:33N 42°01' E 007°28'1212.2
2014-Jul-23 02:33N 42°08' E 007°14'1212.2
2014-Jul-23 01:33N 42°15' E 007°01'1212.3
2014-Jul-23 00:33N 42°21' E 006°47'1212.4
2014-Jul-22 23:33N 42°28' E 006°33'  
Track history (hours):
 
Tides and Currents Weather Stations Pressure Air Temp Water Temp Dewpoint Dewpoint Depression Visibility Wind Speed Wind Dir Waves Ship Positions

Sds Green

Last reported at 2014-Aug-01 23:26 UTC. Time now 2014-Aug-02 00:26 UTC.
Position N 43°26' E 004°53'.

Length 108 m; draft 4.4 m.

Type: Cargo ship. MMSI: 247292200.

Date/timePositionNaut miles runAvg speedWind from/ knotsBaromVisibWave heightAir tempDewpointWater temp
2014-Aug-01 23:26N 43°26' E 004°53'0 0.0
2014-Aug-01 22:32N 43°26' E 004°53'0 0.0
2014-Aug-01 21:32N 43°26' E 004°53'0 0.0
2014-Aug-01 20:32N 43°26' E 004°53'0 0.0
2014-Aug-01 19:29N 43°26' E 004°53'0 0.0
2014-Aug-01 18:32N 43°26' E 004°53'0 0.0
2014-Aug-01 17:29N 43°26' E 004°53'0 0.0
2014-Aug-01 16:29N 43°26' E 004°53'0 0.0
2014-Aug-01 15:32N 43°26' E 004°53'0 0.0
2014-Aug-01 14:32N 43°26' E 004°53'0 0.0
2014-Aug-01 13:32N 43°26' E 004°53'0 0.0
2014-Aug-01 12:32N 43°26' E 004°53'0 0.0
2014-Aug-01 11:32N 43°26' E 004°53'0 0.0
2014-Aug-01 10:32N 43°26' E 004°53'0 0.0
2014-Aug-01 09:32N 43°26' E 004°53'0 0.0
2014-Aug-01 08:32N 43°26' E 004°53'0 0.0
2014-Aug-01 07:32N 43°26' E 004°53'0 0.0
2014-Aug-01 06:32N 43°26' E 004°53'0 0.0
2014-Aug-01 05:29N 43°26' E 004°53'0 0.0
2014-Aug-01 04:32N 43°26' E 004°53'0 0.0
2014-Aug-01 03:29N 43°26' E 004°53'0 0.0
2014-Aug-01 02:23N 43°26' E 004°53'0 0.0
2014-Aug-01 01:32N 43°26' E 004°53'0 0.0
2014-Aug-01 00:32N 43°26' E 004°53'0 0.0
2014-Jul-31 23:32N 43°26' E 004°53'0 0.0
2014-Jul-31 22:29N 43°26' E 004°53'0 0.0
2014-Jul-31 21:32N 43°26' E 004°53'0 0.0
2014-Jul-31 20:32N 43°26' E 004°53'0 0.0
2014-Jul-31 19:32N 43°26' E 004°53'0 0.0
2014-Jul-31 18:32N 43°26' E 004°53'0 0.0
2014-Jul-31 17:32N 43°26' E 004°53'0 0.0
2014-Jul-31 16:32N 43°26' E 004°53'0 0.0
2014-Jul-31 15:29N 43°26' E 004°53'0 0.0
2014-Jul-31 14:32N 43°26' E 004°53'0 0.0
2014-Jul-31 13:32N 43°26' E 004°53'0 0.0
2014-Jul-31 12:32N 43°26' E 004°53'0 0.0
2014-Jul-31 11:29N 43°26' E 004°53'0 0.0
2014-Jul-31 10:32N 43°26' E 004°53'0 0.0
2014-Jul-31 09:32N 43°26' E 004°53'0 0.0
2014-Jul-31 08:33N 43°26' E 004°53'0 0.0
2014-Jul-31 07:33N 43°26' E 004°53'0 0.0
2014-Jul-31 06:33N 43°26' E 004°53'0 0.0
2014-Jul-31 05:33N 43°26' E 004°53'0 0.0
2014-Jul-31 04:33N 43°26' E 004°53'0 0.0
2014-Jul-31 03:33N 43°26' E 004°53'0 0.0
2014-Jul-31 02:33N 43°26' E 004°53'0 0.0
2014-Jul-31 01:33N 43°26' E 004°53'0 0.0
2014-Jul-31 00:33N 43°26' E 004°53'0 0.0
2014-Jul-30 23:33N 43°26' E 004°53'0 0.0
2014-Jul-30 22:33N 43°26' E 004°53'0 0.0
2014-Jul-30 21:33N 43°26' E 004°53'0 0.0
2014-Jul-30 20:33N 43°26' E 004°53'0 0.0
2014-Jul-30 19:33N 43°26' E 004°53'0 0.0
2014-Jul-30 18:33N 43°26' E 004°53'0 0.0
2014-Jul-30 17:33N 43°26' E 004°53'0 0.0
2014-Jul-30 16:33N 43°26' E 004°53'0 0.0
2014-Jul-30 15:33N 43°26' E 004°53'0 0.0
2014-Jul-30 14:33N 43°26' E 004°53'0 0.0
2014-Jul-30 13:33N 43°26' E 004°53'0 0.0
2014-Jul-30 12:33N 43°26' E 004°53'2 2.0
2014-Jul-30 11:33N 43°25' E 004°56'0 0.1
2014-Jul-30 10:31N 43°25' E 004°56'5 4.8
2014-Jul-30 09:34N 43°21' E 004°59'10 9.7
2014-Jul-30 08:32N 43°12' E 005°05'10 9.2
2014-Jul-30 07:29N 43°08' E 005°17'9 9.3
2014-Jul-30 06:33N 43°06' E 005°29'9 9.2
2014-Jul-30 05:34N 43°03' E 005°41'10 9.6
2014-Jul-30 04:33N 43°00' E 005°53'9 9.3
2014-Jul-30 03:34N 42°58' E 006°06'9 8.8
2014-Jul-30 02:33N 42°57' E 006°18'1110.9
2014-Jul-30 01:33N 42°58' E 006°32'1211.7
2014-Jul-30 00:33N 42°59' E 006°48'1111.2
2014-Jul-29 23:33N 43°01' E 007°03'5310.6
2014-Jul-29 18:33N 43°08' E 008°15'1010.2
2014-Jul-29 17:33N 43°07' E 008°29'2510.3
2014-Jul-29 15:10N 43°05' E 009°03'610.5
2014-Jul-29 14:33N 43°05' E 009°12'62 2.5
2014-Jul-28 14:14N 42°54' E 010°35'0 0.0
2014-Jul-28 13:11N 42°54' E 010°35'0 0.0
2014-Jul-28 12:31N 42°54' E 010°35'0 0.0
2014-Jul-28 11:31N 42°54' E 010°35'0 0.0
2014-Jul-28 10:31N 42°54' E 010°35'0 0.0
2014-Jul-27 21:31N 42°54' E 010°35'0 0.0
2014-Jul-27 20:10N 42°54' E 010°35'0 0.0
2014-Jul-27 18:22N 42°54' E 010°35'0 0.0
2014-Jul-27 16:28N 42°54' E 010°35'0 0.0
2014-Jul-27 15:31N 42°54' E 010°35'0 0.0
2014-Jul-27 07:04N 42°54' E 010°35'0 0.0
2014-Jul-26 12:06N 42°54' E 010°35'6 9.9
2014-Jul-26 11:32N 42°49' E 010°36'16312.4
2014-Jul-25 22:22N 40°48' E 013°04'1112.5
2014-Jul-25 21:31N 40°45' E 013°17'1212.5
2014-Jul-25 20:32N 40°41' E 013°33'1212.3
2014-Jul-25 19:33N 40°37' E 013°48'1312.2
2014-Jul-25 18:30N 40°33' E 014°04'1411.8
2014-Jul-25 17:21N 40°31' E 014°21'11 0.3
2014-Jul-24 08:21N 40°35' E 014°35'1012.1
2014-Jul-24 07:32N 40°32' E 014°23'1111.0
2014-Jul-24 06:33N 40°31' E 014°09'10 9.8
2014-Jul-24 05:33N 40°34' E 013°56'1211.8
2014-Jul-24 04:33N 40°36' E 013°41'1312.0
2014-Jul-24 03:28N 40°39' E 013°24'23811.8
2014-Jul-23 07:14N 41°38' E 008°18'911.9
2014-Jul-23 06:30N 41°42' E 008°08'1111.7
2014-Jul-23 05:33N 41°48' E 007°55'1212.0
2014-Jul-23 04:33N 41°55' E 007°42'1212.2
2014-Jul-23 03:33N 42°01' E 007°28'1212.2
2014-Jul-23 02:33N 42°08' E 007°14'1212.2
2014-Jul-23 01:33N 42°15' E 007°01'1212.3
2014-Jul-23 00:33N 42°21' E 006°47'1212.4
2014-Jul-22 23:33N 42°28' E 006°33'  

Dump ship's entire track history